チタ の空港の天気 - METARとTAF

チタ・カダラ空港 ( UIAA / HTA ) - ロシア チタ
飛行場実況気象(Metar)
観測時間10/24 11:30 YAKT (10/24 02:30 UTC)
風向・風速静穏 0m/s
視程10km以上
天気現象
なし
気温1℃
湿度69%
気圧1018hPa
METARUIAA 240230Z 00000MPS 9999 NSC 01/M04 Q1018 R29/70D NOSIG RMK QFE704/0939
過去の天気等 Google飛行場航空写真 Wunderground天気予報

過去48時間のMETAR

飛行場予報(TAF)
発表時間: 10/24 11:00 YAKT (10/24 02:00 UTC)
予報対象時間: 24日12時 YAKT ~ 25日12時 YAKT
風向・風速南西 3m/s 瞬間風速 8m/s
視程10km以上
なし
24日12時 YAKT ~ 24日21時 YAKT に一時的に
風向・風速西 5m/s
TAF UIAA 240200Z 2403/2503 22003G08MPS 9999 NSC
TEMPO 2403/2412 28005MPS